Villalbilla, Spain
Current Conditions -  °F | °C
As of 3:00 PM on Friday 19 Dec 2014 (Local Time) from LETO Reporting Station
Clear Clear  
Wind Chill: 13°   Ceiling: Unl
Heat Index: 13°   Visibility: 6mi
Dew Point:   Wind: 3mph
Humidity: 72%   Direction: 210°SSW
Pressure: 30.39"   Gusts: NA
Location:  40.43°N, 3.3°W
Report Text: LETO 191400Z 21003KT 180V250 CAVOK 13/08 Q1029 NOSIG
Loading
Personal Weather Stations






























Interactive Weather Map New forecast layout! Learn more

10-Day Weather Forecast

Advertisements
Track Severe Weather on mobile